Richmond, MN (56368)

5:10 PM CST on February 14, 2016 (GMT -0600)
North of Kimball | | Change Station
CLOSE
Current Station
Personal Weather Station
Location: Kimball, MN
Elevation: 1260 ft
Nearby Weather Stations

Elev 1260 ft 45.35 °N, 94.34 °W | Updated 9 seconds ago

Snow
Snow
18.2 °F
Feels Like 5 °F
N
12.0
Wind Variable Wind from ESE
Gusts 16.0 mph

Today
High -- | Low -- °F
--% Chance of Precip.
Yesterday
High -- | Low -- °F
Precip. -- in
Pressure 29.85 in
Visibility 7.0 miles
Clouds Scattered Clouds 1400 ft
Mostly Cloudy 2100 ft
Overcast 4000 ft
Windchill 5 °F
Dew Point 15 °F
Humidity 87%
Rainfall 0.00 in
Snow Depth Not available.
7:21 AM 5:43 PM
Waxing Crescent, 46% visible
METAR KPEX 142254Z AUTO 15009KT 7SM -SN SCT014 BKN021 OVC040 M07/M09 A2985 RMK AO2 T10751095
Pressure 29.85 in
Visibility 7.0 miles
Clouds Scattered Clouds 1400 ft
Mostly Cloudy 2100 ft
Overcast 4000 ft
Windchill 5 °F
Dew Point 15 °F
Humidity 87%
Rainfall 0.00 in
Snow Depth Not available.
7:21 AM 5:43 PM
Waxing Crescent, 46% visible
METAR KPEX 142254Z AUTO 15009KT 7SM -SN SCT014 BKN021 OVC040 M07/M09 A2985 RMK AO2 T10751095

10-Day Weather Forecast

Almanac

Astronomy

Feb. 14, 2016 Rise Set
Actual Time
Civil Twilight
Nautical Twilight
Astronomical Twilight
Moon
Length of Visible Light
Length of Day
Tomorrow will be .
, % of the Moon is Illuminated

Today's Extremes

State Highs State Lows

Community

WunderPhotos

Upload Photos

1,892,909 photos uploaded!

WunderBlog® & News

Nearby

Air Quality

  Air Quality AQ Index Pollutant
Not available.

Snow Depth

Station Depth Elevation

Earthquake Activity

City Distance Mag. Time & Date
Minimum magnitude displayed is 2.5.

Coastal Water Temperatures

Place Temperature

Stations

Nearby Weather Stations

Station Location Temp. Windchill Dew Point Humidity Wind Precip. Elev Updated Type
                   

Watches & Warnings

There are currently no watches in effect.